createdAt,value
2019-02-21T00:02:06.018Z,71.00
2019-02-21T00:04:35.342Z,71.00
2019-02-21T00:07:04.683Z,71.00
2019-02-21T00:09:34.050Z,72.00
2019-02-21T00:12:03.514Z,71.20
2019-02-21T00:14:32.858Z,71.10
2019-02-21T00:17:02.179Z,71.10
2019-02-21T00:19:31.514Z,71.40
2019-02-21T00:22:01.719Z,71.00
2019-02-21T00:24:31.069Z,71.80
2019-02-21T00:27:00.558Z,71.70
2019-02-21T00:29:29.858Z,71.50
2019-02-21T00:31:59.198Z,71.10
2019-02-21T00:34:28.542Z,71.30
2019-02-21T00:36:57.893Z,71.40
2019-02-21T00:39:27.205Z,71.90
2019-02-21T00:41:56.578Z,71.80
2019-02-21T00:44:25.878Z,71.70
2019-02-21T00:46:55.243Z,71.00
2019-02-21T00:49:24.554Z,71.20
2019-02-21T00:51:55.027Z,71.70
2019-02-21T00:54:24.338Z,71.60
2019-02-21T00:56:53.685Z,71.70
2019-02-21T00:59:22.974Z,72.20
2019-02-21T01:01:52.270Z,72.20
2019-02-21T01:04:21.676Z,72.30
2019-02-21T01:06:51.001Z,72.90
2019-02-21T01:09:20.354Z,71.80
2019-02-21T01:11:49.650Z,71.60
2019-02-21T01:14:19.034Z,71.50
2019-02-21T01:16:48.397Z,72.00
2019-02-21T01:19:17.680Z,72.10
2019-02-21T01:21:47.374Z,71.80
2019-02-21T01:24:16.997Z,71.80
2019-02-21T01:26:46.282Z,71.70
2019-02-21T01:29:15.594Z,72.40
2019-02-21T01:31:44.907Z,72.20
2019-02-21T01:34:14.324Z,71.70
2019-02-21T01:36:43.790Z,72.30
2019-02-21T01:39:13.100Z,72.00
2019-02-21T01:41:42.434Z,72.20
2019-02-21T01:44:11.882Z,72.10
2019-02-21T01:46:41.202Z,72.00
2019-02-21T01:49:10.499Z,72.10
2019-02-21T01:51:39.822Z,72.00
2019-02-21T01:54:09.138Z,72.10
2019-02-21T01:56:38.566Z,72.30
2019-02-21T01:59:08.240Z,72.20
2019-02-21T02:01:37.575Z,72.10
2019-02-21T02:04:06.867Z,71.90
2019-02-21T02:06:36.149Z,72.60
2019-02-21T02:09:07.599Z,72.40
2019-02-21T02:11:36.935Z,72.90
2019-02-21T02:14:06.275Z,72.60
2019-02-21T02:16:35.573Z,72.60
2019-02-21T02:19:04.950Z,72.50
2019-02-21T02:21:34.259Z,72.50
2019-02-21T02:24:03.587Z,72.40
2019-02-21T02:26:32.966Z,72.60
2019-02-21T02:29:02.321Z,72.70
2019-02-21T02:31:31.638Z,72.90
2019-02-21T02:34:00.947Z,73.10
2019-02-21T02:36:30.288Z,73.20
2019-02-21T02:38:59.599Z,72.80
2019-02-21T02:41:28.930Z,72.90
2019-02-21T02:43:58.242Z,73.10
2019-02-21T02:46:27.596Z,73.10
2019-02-21T02:48:56.895Z,73.70
2019-02-21T02:51:26.278Z,73.20
2019-02-21T02:53:55.614Z,73.30
2019-02-21T02:56:26.497Z,73.20
2019-02-21T02:58:55.787Z,73.30
2019-02-21T03:01:34.377Z,73.40
2019-02-21T03:03:56.150Z,73.10
2019-02-21T03:06:25.494Z,73.50
2019-02-21T03:08:55.205Z,73.30
2019-02-21T03:11:24.522Z,73.40
2019-02-21T03:13:53.877Z,73.70
2019-02-21T03:16:23.238Z,73.60
2019-02-21T03:18:52.569Z,73.50
2019-02-21T03:21:21.864Z,73.40
2019-02-21T03:23:51.186Z,73.40
2019-02-21T03:26:20.500Z,73.50
2019-02-21T03:28:49.875Z,73.40
2019-02-21T03:31:19.176Z,73.40
2019-02-21T03:33:48.503Z,73.40
2019-02-21T03:36:17.812Z,73.50
2019-02-21T03:38:47.343Z,73.90
2019-02-21T03:41:16.779Z,73.50
2019-02-21T03:43:46.016Z,74.00
2019-02-21T03:46:15.539Z,74.40
2019-02-21T03:48:44.849Z,73.80
2019-02-21T03:51:14.276Z,73.50
2019-02-21T03:53:43.627Z,73.90
2019-02-21T03:56:12.937Z,73.50
2019-02-21T03:58:42.278Z,73.60
2019-02-21T04:01:11.563Z,73.70
2019-02-21T04:03:40.998Z,73.50
2019-02-21T04:06:10.292Z,73.70
2019-02-21T04:08:39.690Z,73.80
2019-02-21T04:11:09.030Z,73.50
2019-02-21T04:13:38.357Z,73.40
2019-02-21T04:16:07.743Z,73.80
2019-02-21T04:18:37.058Z,73.50
2019-02-21T04:21:06.343Z,73.80
2019-02-21T04:23:35.678Z,74.30
2019-02-21T04:26:05.016Z,73.90
2019-02-21T04:28:34.456Z,74.40
2019-02-21T04:31:03.775Z,74.10
2019-02-21T04:33:34.377Z,74.20
2019-02-21T04:36:03.914Z,73.70
2019-02-21T04:38:33.269Z,74.40
2019-02-21T04:41:02.572Z,74.50
2019-02-21T04:43:31.864Z,74.20
2019-02-21T04:46:01.178Z,74.40
2019-02-21T04:48:30.463Z,74.90
2019-02-21T04:50:59.813Z,75.40
2019-02-21T04:53:29.103Z,75.30
2019-02-21T04:55:58.426Z,75.60
2019-02-21T04:58:27.718Z,75.60
2019-02-21T05:00:57.027Z,75.90
2019-02-21T05:03:26.377Z,75.70
2019-02-21T05:05:55.674Z,76.50
2019-02-21T05:08:25.001Z,76.50
2019-02-21T05:10:54.341Z,76.80
2019-02-21T05:13:23.627Z,76.80
2019-02-21T05:15:52.965Z,76.80
2019-02-21T05:18:22.282Z,77.30
2019-02-21T05:20:51.630Z,76.50
2019-02-21T05:23:20.983Z,76.40
2019-02-21T05:25:50.310Z,76.50
2019-02-21T05:28:22.205Z,76.50
2019-02-21T05:30:53.093Z,76.70
2019-02-21T05:33:40.310Z,76.80
2019-02-21T05:36:31.543Z,76.50
2019-02-21T05:39:21.370Z,77.00
2019-02-21T05:42:08.579Z,76.70
2019-02-21T05:44:45.831Z,76.60
2019-02-21T05:47:32.936Z,76.90
2019-02-21T05:50:39.328Z,77.20
2019-02-21T05:53:26.035Z,77.50
2019-02-21T05:56:02.695Z,76.90
2019-02-21T05:58:54.163Z,77.60
2019-02-21T06:01:53.702Z,77.20
2019-02-21T06:04:51.998Z,77.30
2019-02-21T06:07:49.771Z,78.80
2019-02-21T06:10:46.943Z,77.90
2019-02-21T06:13:38.036Z,78.20
2019-02-21T06:16:35.495Z,78.10
2019-02-21T06:19:12.127Z,77.80
2019-02-21T06:22:10.869Z,77.60
2019-02-21T06:24:53.118Z,78.20
2019-02-21T06:27:29.424Z,78.10
2019-02-21T06:30:02.592Z,77.80
2019-02-21T06:32:31.889Z,77.90
2019-02-21T06:35:02.917Z,78.10
2019-02-21T06:37:32.193Z,78.20
2019-02-21T06:40:01.499Z,78.40
2019-02-21T06:42:30.812Z,79.30
2019-02-21T06:45:00.124Z,78.80
2019-02-21T06:47:29.450Z,78.50
2019-02-21T06:50:26.352Z,79.10
2019-02-21T06:52:48.932Z,78.70
2019-02-21T06:55:20.538Z,78.90
2019-02-21T06:57:49.315Z,79.00
2019-02-21T07:00:18.687Z,79.30
2019-02-21T07:02:48.035Z,79.30
2019-02-21T07:05:17.508Z,78.30
2019-02-21T07:07:46.827Z,79.30
2019-02-21T07:10:16.163Z,78.90
2019-02-21T07:12:45.611Z,79.10
2019-02-21T07:15:15.248Z,78.90
2019-02-21T07:17:49.341Z,79.90
2019-02-21T07:20:15.741Z,79.40
2019-02-21T07:22:45.050Z,79.40
2019-02-21T07:25:32.524Z,79.20
2019-02-21T07:28:11.357Z,79.00
2019-02-21T07:30:32.943Z,79.60
2019-02-21T07:33:02.262Z,79.00
2019-02-21T07:35:31.811Z,79.50
2019-02-21T07:38:01.175Z,80.10
2019-02-21T07:40:30.483Z,79.30
2019-02-21T07:42:59.891Z,78.90
2019-02-21T07:45:29.225Z,79.40
2019-02-21T07:47:58.606Z,80.20
2019-02-21T07:50:27.976Z,79.50
2019-02-21T07:53:02.498Z,80.10
2019-02-21T07:55:28.327Z,79.70
2019-02-21T07:57:57.711Z,79.40
2019-02-21T08:00:27.073Z,78.90
2019-02-21T08:02:56.418Z,79.50
2019-02-21T08:05:25.790Z,79.60
2019-02-21T08:07:55.124Z,79.80
2019-02-21T08:10:33.072Z,79.30
2019-02-21T08:12:55.477Z,79.30
2019-02-21T08:15:27.519Z,79.90
2019-02-21T08:17:55.794Z,79.50
2019-02-21T08:20:33.640Z,80.00
2019-02-21T08:22:56.094Z,79.40
2019-02-21T08:25:25.431Z,79.60
2019-02-21T08:27:54.766Z,79.70
2019-02-21T08:30:24.107Z,79.40
2019-02-21T08:33:06.618Z,79.30
2019-02-21T08:35:35.986Z,79.40
2019-02-21T08:38:05.547Z,79.10
2019-02-21T08:40:34.928Z,80.00
2019-02-21T08:43:04.318Z,79.50
2019-02-21T08:45:33.634Z,78.80
2019-02-21T08:48:02.999Z,79.30
2019-02-21T08:50:32.332Z,79.30
2019-02-21T08:53:01.672Z,79.20
2019-02-21T08:55:30.987Z,79.30
2019-02-21T08:58:00.311Z,79.20
2019-02-21T09:00:31.547Z,79.40
2019-02-21T09:03:00.618Z,79.20
2019-02-21T09:05:29.943Z,79.00
2019-02-21T09:07:59.302Z,78.70
2019-02-21T09:10:28.726Z,78.50
2019-02-21T09:12:58.051Z,79.60
2019-02-21T09:15:27.351Z,78.40
2019-02-21T09:17:56.671Z,78.30
2019-02-21T09:20:26.054Z,78.20
2019-02-21T09:22:55.407Z,78.30
2019-02-21T09:25:24.787Z,78.10
2019-02-21T09:27:54.127Z,77.60
2019-02-21T09:30:23.476Z,78.30
2019-02-21T09:32:52.913Z,78.10
2019-02-21T09:35:22.255Z,77.90
2019-02-21T09:37:51.614Z,78.00
2019-02-21T09:40:20.966Z,77.60
2019-02-21T09:42:50.264Z,77.80
2019-02-21T09:45:19.654Z,77.10
2019-02-21T09:47:49.052Z,76.60
2019-02-21T09:50:18.362Z,75.90
2019-02-21T09:52:47.766Z,76.20
2019-02-21T09:55:17.458Z,75.80
2019-02-21T09:57:46.775Z,75.30
2019-02-21T10:00:17.992Z,74.60
2019-02-21T10:02:47.324Z,74.70
2019-02-21T10:05:16.684Z,74.00
2019-02-21T10:07:46.001Z,72.80
2019-02-21T10:10:16.921Z,71.90
2019-02-21T10:12:46.247Z,72.20
2019-02-21T10:15:15.614Z,70.70
2019-02-21T10:17:44.950Z,70.40
2019-02-21T10:20:18.633Z,70.00
2019-02-21T10:22:47.997Z,70.60
2019-02-21T10:25:19.476Z,70.60
2019-02-21T10:27:48.878Z,68.40
2019-02-21T10:30:19.418Z,69.60
2019-02-21T10:32:48.775Z,69.50
2019-02-21T10:35:18.106Z,67.40
2019-02-21T10:37:47.476Z,68.20
2019-02-21T10:40:16.821Z,69.30
2019-02-21T10:42:46.188Z,70.60
2019-02-21T10:45:17.069Z,69.20
2019-02-21T10:47:46.416Z,69.90
2019-02-21T10:50:17.296Z,69.80
2019-02-21T10:52:46.647Z,69.20
2019-02-21T10:55:16.165Z,68.20
2019-02-21T10:57:45.745Z,67.10
2019-02-21T11:00:20.240Z,67.10
2019-02-21T11:02:49.614Z,66.50
2019-02-21T11:05:19.025Z,66.10
2019-02-21T11:07:48.362Z,65.60
2019-02-21T11:10:19.741Z,66.70
2019-02-21T11:12:49.040Z,66.70
2019-02-21T11:15:18.469Z,67.20
2019-02-21T11:17:47.823Z,67.90
2019-02-21T11:20:17.583Z,64.50
2019-02-21T11:22:46.894Z,65.60
2019-02-21T11:25:16.242Z,65.60
2019-02-21T11:27:45.558Z,64.50
2019-02-21T11:30:16.462Z,65.50
2019-02-21T11:32:45.830Z,66.00
2019-02-21T11:35:15.250Z,66.00
2019-02-21T11:37:47.092Z,66.20
2019-02-21T11:40:15.871Z,68.10
2019-02-21T11:42:45.245Z,67.10
2019-02-21T11:45:15.483Z,66.20
2019-02-21T11:47:45.025Z,65.60
2019-02-21T11:50:15.741Z,66.10
2019-02-21T11:52:45.077Z,63.50
2019-02-21T11:55:16.567Z,65.10
2019-02-21T11:57:45.928Z,65.40
2019-02-21T12:00:17.848Z,65.50
2019-02-21T12:02:47.138Z,65.20
2019-02-21T12:05:17.785Z,64.60
2019-02-21T12:07:47.327Z,64.70
2019-02-21T12:10:16.639Z,65.10
2019-02-21T12:12:45.971Z,64.80
2019-02-21T12:15:15.347Z,65.80
2019-02-21T12:17:44.647Z,65.80
2019-02-21T12:20:14.121Z,65.30
2019-02-21T12:22:43.469Z,66.20
2019-02-21T12:25:14.142Z,66.70
2019-02-21T12:27:43.471Z,66.10
2019-02-21T12:30:15.007Z,67.00
2019-02-21T12:32:44.369Z,69.70
2019-02-21T12:35:13.772Z,70.80
2019-02-21T12:37:43.100Z,71.60
2019-02-21T12:40:14.595Z,73.20
2019-02-21T12:42:43.970Z,73.40
2019-02-21T12:45:15.122Z,73.90
2019-02-21T12:47:50.687Z,74.20
2019-02-21T12:50:15.539Z,73.70
2019-02-21T12:52:44.981Z,74.40
2019-02-21T12:55:26.411Z,74.00
2019-02-21T12:57:45.684Z,73.90
2019-02-21T13:00:17.179Z,74.30
2019-02-21T13:02:46.486Z,73.90
2019-02-21T13:05:15.803Z,74.10
2019-02-21T13:07:45.142Z,74.20
2019-02-21T13:10:16.072Z,73.50
2019-02-21T13:12:45.425Z,75.50
2019-02-21T13:15:14.920Z,73.90
2019-02-21T13:17:44.288Z,73.40
2019-02-21T13:20:13.594Z,72.20
2019-02-21T13:22:42.929Z,74.60
2019-02-21T13:25:12.603Z,73.20
2019-02-21T13:27:41.947Z,73.40
2019-02-21T13:30:13.451Z,73.90
2019-02-21T13:32:42.780Z,73.60
2019-02-21T13:35:12.144Z,73.50
2019-02-21T13:37:41.494Z,73.40
2019-02-21T13:40:12.313Z,73.50
2019-02-21T13:42:41.682Z,72.90
2019-02-21T13:45:11.590Z,73.80
2019-02-21T13:47:40.975Z,73.40
2019-02-21T13:50:14.956Z,73.50
2019-02-21T13:52:44.323Z,72.50
2019-02-21T13:55:13.699Z,72.90
2019-02-21T13:57:42.973Z,72.10
2019-02-21T14:00:14.588Z,73.00
2019-02-21T14:02:43.903Z,71.40
2019-02-21T14:05:14.056Z,73.50
2019-02-21T14:07:43.364Z,72.10
2019-02-21T14:10:12.734Z,71.60
2019-02-21T14:12:42.086Z,71.40
2019-02-21T14:15:14.306Z,73.20
2019-02-21T14:17:43.616Z,71.40
2019-02-21T14:20:12.971Z,70.80
2019-02-21T14:22:42.349Z,72.30
2019-02-21T14:25:11.812Z,72.30
2019-02-21T14:27:41.133Z,71.60
2019-02-21T14:30:12.858Z,72.00
2019-02-21T14:32:42.199Z,71.10
2019-02-21T14:35:12.049Z,71.50
2019-02-21T14:37:41.398Z,71.00
2019-02-21T14:40:11.334Z,70.60
2019-02-21T14:42:40.674Z,71.60
2019-02-21T14:45:12.647Z,71.70
2019-02-21T14:47:41.944Z,71.50
2019-02-21T14:50:11.567Z,71.40
2019-02-21T14:52:40.958Z,72.10
2019-02-21T14:55:11.103Z,71.60
2019-02-21T14:57:41.386Z,72.40
2019-02-21T15:00:19.688Z,71.70
2019-02-21T15:02:49.099Z,72.20
2019-02-21T15:05:18.689Z,73.10
2019-02-21T15:07:48.076Z,71.90
2019-02-21T15:10:17.447Z,72.30
2019-02-21T15:12:46.798Z,72.70
2019-02-21T15:15:16.944Z,72.70
2019-02-21T15:17:46.517Z,71.70
2019-02-21T15:20:16.494Z,72.60
2019-02-21T15:22:45.855Z,73.30
2019-02-21T15:25:15.208Z,73.00
2019-02-21T15:27:44.564Z,73.00
2019-02-21T15:30:15.865Z,72.90
2019-02-21T15:32:45.236Z,72.70
2019-02-21T15:35:14.601Z,73.40
2019-02-21T15:37:45.056Z,73.10
2019-02-21T15:40:14.666Z,73.40
2019-02-21T15:42:43.973Z,74.00
2019-02-21T15:45:22.808Z,73.60
2019-02-21T15:47:46.521Z,73.30
2019-02-21T15:50:15.862Z,73.90
2019-02-21T15:52:45.451Z,73.50
2019-02-21T15:55:15.381Z,74.00
2019-02-21T15:57:44.805Z,74.70
2019-02-21T16:00:16.946Z,75.70
2019-02-21T16:02:46.347Z,75.50
2019-02-21T16:05:15.686Z,75.10
2019-02-21T16:07:45.031Z,75.90
2019-02-21T16:10:16.702Z,76.40
2019-02-21T16:12:46.151Z,77.30
2019-02-21T16:15:16.553Z,78.70
2019-02-21T16:17:46.142Z,79.40
2019-02-21T16:20:15.827Z,78.70
2019-02-21T16:22:45.279Z,78.90
2019-02-21T16:25:16.915Z,78.40
2019-02-21T16:27:46.233Z,79.30
2019-02-21T16:30:15.871Z,79.00
2019-02-21T16:32:45.217Z,79.80
2019-02-21T16:35:14.606Z,79.20
2019-02-21T16:37:43.940Z,79.60
2019-02-21T16:40:13.921Z,79.10
2019-02-21T16:42:43.278Z,80.00
2019-02-21T16:45:13.512Z,79.70
2019-02-21T16:47:42.853Z,81.00
2019-02-21T16:50:12.859Z,80.60
2019-02-21T16:52:42.249Z,80.50
2019-02-21T16:55:13.953Z,80.80
2019-02-21T16:57:43.257Z,81.90
2019-02-21T17:00:13.606Z,82.60
2019-02-21T17:02:42.939Z,81.60
2019-02-21T17:05:12.313Z,80.80
2019-02-21T17:07:41.677Z,80.60
2019-02-21T17:10:11.040Z,81.00
2019-02-21T17:12:40.429Z,81.00
2019-02-21T17:15:11.052Z,82.00
2019-02-21T17:17:40.399Z,82.20
2019-02-21T17:20:11.602Z,82.10
2019-02-21T17:22:40.966Z,83.40
2019-02-21T17:25:11.112Z,82.70
2019-02-21T17:27:40.510Z,83.30
2019-02-21T17:30:11.257Z,83.10
2019-02-21T17:32:40.617Z,83.50
2019-02-21T17:35:10.016Z,84.30
2019-02-21T17:37:39.384Z,83.70
2019-02-21T17:40:10.686Z,85.40
2019-02-21T17:42:39.986Z,85.70
2019-02-21T17:45:10.152Z,86.50
2019-02-21T17:47:39.447Z,86.60
2019-02-21T17:50:11.041Z,86.00
2019-02-21T17:52:40.506Z,86.20
2019-02-21T17:55:09.917Z,85.30
2019-02-21T17:57:39.278Z,87.00
2019-02-21T18:00:11.759Z,86.00
2019-02-21T18:02:41.091Z,87.30
2019-02-21T18:05:10.542Z,90.10
2019-02-21T18:07:39.851Z,90.00
2019-02-21T18:10:11.295Z,88.60
2019-02-21T18:12:40.718Z,86.50
2019-02-21T18:15:10.280Z,89.40
2019-02-21T18:17:39.599Z,90.00
2019-02-21T18:20:09.695Z,90.00
2019-02-21T18:22:39.074Z,86.60
2019-02-21T18:25:11.671Z,86.10
2019-02-21T18:27:41.029Z,87.90
2019-02-21T18:30:11.786Z,89.90
2019-02-21T18:32:41.147Z,87.20
2019-02-21T18:35:10.612Z,88.00
2019-02-21T18:37:47.053Z,88.20
2019-02-21T18:40:17.257Z,90.60
2019-02-21T18:42:43.929Z,90.10
2019-02-21T18:45:13.280Z,90.20
2019-02-21T18:47:42.619Z,89.40
2019-02-21T18:50:12.005Z,89.00
2019-02-21T18:52:41.330Z,91.50
2019-02-21T18:55:10.655Z,91.40
2019-02-21T18:57:40.050Z,91.50
2019-02-21T19:00:11.302Z,90.80
2019-02-21T19:02:40.642Z,91.20
2019-02-21T19:05:09.971Z,91.40
2019-02-21T19:07:39.328Z,90.50
2019-02-21T19:10:10.759Z,90.40
2019-02-21T19:12:40.126Z,91.90
2019-02-21T19:15:09.435Z,90.40
2019-02-21T19:17:38.815Z,90.40
2019-02-21T19:20:09.383Z,90.80
2019-02-21T19:22:38.754Z,91.00
2019-02-21T19:25:08.913Z,92.20
2019-02-21T19:27:38.205Z,92.20
2019-02-21T19:30:17.447Z,91.30
2019-02-21T19:32:46.809Z,91.00
2019-02-21T19:35:16.367Z,92.10
2019-02-21T19:37:45.724Z,90.90
2019-02-21T19:40:15.019Z,90.20
2019-02-21T19:42:44.418Z,90.90
2019-02-21T19:45:13.715Z,92.90
2019-02-21T19:47:43.095Z,91.80
2019-02-21T19:50:12.398Z,91.10
2019-02-21T19:52:41.765Z,91.30
2019-02-21T19:55:11.117Z,91.20
2019-02-21T19:57:40.503Z,91.40
2019-02-21T20:00:12.203Z,90.60
2019-02-21T20:02:41.577Z,92.60
2019-02-21T20:05:10.912Z,91.40
2019-02-21T20:07:40.286Z,90.70
2019-02-21T20:10:09.606Z,92.00
2019-02-21T20:12:38.925Z,91.30
2019-02-21T20:15:08.267Z,90.50
2019-02-21T20:17:37.637Z,90.60
2019-02-21T20:20:07.815Z,90.70
2019-02-21T20:22:37.131Z,92.20
2019-02-21T20:25:06.455Z,91.60
2019-02-21T20:27:35.809Z,91.30
2019-02-21T20:30:05.322Z,91.80
2019-02-21T20:32:34.667Z,91.70
2019-02-21T20:35:04.040Z,91.90
2019-02-21T20:37:33.397Z,91.50
2019-02-21T20:40:02.690Z,92.40
2019-02-21T20:42:32.014Z,91.60
2019-02-21T20:45:01.335Z,91.40
2019-02-21T20:47:30.677Z,91.50
2019-02-21T20:50:00.012Z,92.60
2019-02-21T20:52:29.395Z,91.30
2019-02-21T20:54:58.709Z,91.50
2019-02-21T20:57:28.285Z,92.00
2019-02-21T20:59:57.655Z,91.90
2019-02-21T21:02:27.005Z,91.80
2019-02-21T21:04:56.337Z,92.50
2019-02-21T21:07:25.666Z,92.40
2019-02-21T21:09:55.054Z,91.60
2019-02-21T21:12:24.416Z,92.00
2019-02-21T21:14:53.733Z,92.00
2019-02-21T21:17:23.122Z,91.70
2019-02-21T21:19:52.434Z,91.50
2019-02-21T21:22:21.794Z,91.20
2019-02-21T21:24:51.368Z,91.70
2019-02-21T21:27:20.654Z,90.90
2019-02-21T21:29:49.968Z,92.10
2019-02-21T21:32:19.340Z,92.60
2019-02-21T21:34:48.635Z,91.70
2019-02-21T21:37:18.004Z,92.30
2019-02-21T21:39:47.296Z,91.50
2019-02-21T21:42:16.681Z,91.10
2019-02-21T21:44:45.980Z,91.10
2019-02-21T21:47:15.323Z,91.70
2019-02-21T21:49:44.620Z,92.40
2019-02-21T21:52:13.974Z,92.80
2019-02-21T21:54:43.275Z,91.40
2019-02-21T21:57:12.672Z,91.70
2019-02-21T21:59:42.005Z,92.00
2019-02-21T22:02:11.358Z,91.90
2019-02-21T22:04:40.682Z,92.00
2019-02-21T22:07:10.054Z,91.50
2019-02-21T22:09:39.381Z,91.30
2019-02-21T22:12:08.670Z,91.70
2019-02-21T22:14:38.008Z,92.10
2019-02-21T22:17:07.310Z,91.40
2019-02-21T22:19:36.697Z,91.80
2019-02-21T22:22:06.026Z,92.30
2019-02-21T22:24:35.307Z,91.10
2019-02-21T22:27:04.673Z,92.50
2019-02-21T22:29:34.028Z,91.60
2019-02-21T22:32:03.347Z,91.50
2019-02-21T22:34:36.524Z,91.80
2019-02-21T22:37:11.138Z,92.20
2019-02-21T22:39:44.754Z,91.90
2019-02-21T22:42:17.547Z,92.50
2019-02-21T22:44:51.050Z,92.90
2019-02-21T22:47:20.428Z,91.50
2019-02-21T22:49:49.788Z,92.00
2019-02-21T22:52:19.067Z,92.60
2019-02-21T22:54:48.426Z,91.30
2019-02-21T22:57:17.734Z,91.40
2019-02-21T22:59:47.043Z,91.30
2019-02-21T23:02:16.477Z,91.60
2019-02-21T23:05:17.659Z,90.90
2019-02-21T23:08:15.997Z,91.60
2019-02-21T23:10:45.332Z,91.50
2019-02-21T23:13:14.716Z,91.50
2019-02-21T23:15:44.043Z,91.50
2019-02-21T23:18:13.437Z,92.80
2019-02-21T23:20:42.776Z,90.60
2019-02-21T23:23:12.134Z,91.70
2019-02-21T23:25:41.540Z,91.40
2019-02-21T23:28:10.927Z,91.80
2019-02-21T23:30:40.251Z,92.20
2019-02-21T23:33:09.591Z,92.80
2019-02-21T23:35:38.918Z,91.70
2019-02-21T23:38:08.236Z,91.60
2019-02-21T23:40:37.557Z,91.80
2019-02-21T23:43:06.933Z,92.10
2019-02-21T23:45:36.296Z,91.90
2019-02-21T23:48:05.658Z,91.60
2019-02-21T23:50:35.039Z,91.70
2019-02-21T23:53:04.338Z,92.30
2019-02-21T23:55:33.699Z,91.80
2019-02-21T23:58:02.999Z,91.60
